sensor_id;sensor_type;location;lat;lon;timestamp;pressure;altitude;pressure_sealevel;temperature;humidity
65280;BME280;51878;55.748;48.742;2022-12-07T00:01:15;101210.13;;;-14.03;100.00
65280;BME280;51878;55.748;48.742;2022-12-07T00:03:44;101064.53;;;-14.91;100.00
65280;BME280;51878;55.748;48.742;2022-12-07T00:06:13;101182.22;;;-14.19;100.00
65280;BME280;51878;55.748;48.742;2022-12-07T00:08:41;101187.41;;;-14.21;100.00
65280;BME280;51878;55.748;48.742;2022-12-07T00:11:13;101043.59;;;-15.08;100.00
65280;BME280;51878;55.748;48.742;2022-12-07T00:13:41;101151.63;;;-14.48;100.00
65280;BME280;51878;55.748;48.742;2022-12-07T00:16:17;101122.88;;;-14.62;100.00
65280;BME280;51878;55.748;48.742;2022-12-07T00:18:45;101210.88;;;-14.16;100.00
65280;BME280;51878;55.748;48.742;2022-12-07T00:21:20;101159.53;;;-14.37;100.00
65280;BME280;51878;55.748;48.742;2022-12-07T00:23:49;101197.78;;;-14.27;100.00
65280;BME280;51878;55.748;48.742;2022-12-07T00:26:19;101203.91;;;-14.22;100.00
65280;BME280;51878;55.748;48.742;2022-12-07T00:28:48;101177.69;;;-14.42;100.00
65280;BME280;51878;55.748;48.742;2022-12-07T00:31:18;101118.44;;;-14.78;100.00
65280;BME280;51878;55.748;48.742;2022-12-07T00:33:46;101201.22;;;-14.32;100.00
65280;BME280;51878;55.748;48.742;2022-12-07T00:36:16;101203.75;;;-14.39;100.00
65280;BME280;51878;55.748;48.742;2022-12-07T00:38:47;101192.34;;;-14.53;100.00
65280;BME280;51878;55.748;48.742;2022-12-07T00:41:19;101213.25;;;-14.42;100.00
65280;BME280;51878;55.748;48.742;2022-12-07T00:43:48;101134.03;;;-14.78;100.00
65280;BME280;51878;55.748;48.742;2022-12-07T00:46:16;101183.66;;;-14.53;100.00
65280;BME280;51878;55.748;48.742;2022-12-07T00:48:43;101058.06;;;-15.38;100.00
65280;BME280;51878;55.748;48.742;2022-12-07T00:51:15;101208.91;;;-14.42;100.00
65280;BME280;51878;55.748;48.742;2022-12-07T00:53:43;101194.88;;;-14.65;100.00
65280;BME280;51878;55.748;48.742;2022-12-07T00:56:25;101118.25;;;-14.95;100.00
65280;BME280;51878;55.748;48.742;2022-12-07T00:58:59;101199.28;;;-14.55;100.00
65280;BME280;51878;55.748;48.742;2022-12-07T01:01:34;101195.84;;;-14.52;100.00
65280;BME280;51878;55.748;48.742;2022-12-07T01:04:02;101203.78;;;-14.36;100.00
65280;BME280;51878;55.748;48.742;2022-12-07T01:06:29;101172.47;;;-14.45;100.00
65280;BME280;51878;55.748;48.742;2022-12-07T01:08:57;101097.50;;;-14.89;100.00
65280;BME280;51878;55.748;48.742;2022-12-07T01:11:27;101195.22;;;-14.24;100.00
65280;BME280;51878;55.748;48.742;2022-12-07T01:13:56;101096.75;;;-14.79;100.00
65280;BME280;51878;55.748;48.742;2022-12-07T01:16:28;101200.47;;;-14.19;100.00
65280;BME280;51878;55.748;48.742;2022-12-07T01:18:56;101184.75;;;-14.27;100.00
65280;BME280;51878;55.748;48.742;2022-12-07T01:21:30;101200.41;;;-14.22;100.00
65280;BME280;51878;55.748;48.742;2022-12-07T01:23:59;101032.34;;;-15.04;100.00
65280;BME280;51878;55.748;48.742;2022-12-07T01:26:27;101185.59;;;-14.29;100.00
65280;BME280;51878;55.748;48.742;2022-12-07T01:28:54;101155.94;;;-14.48;100.00
65280;BME280;51878;55.748;48.742;2022-12-07T01:31:23;101207.38;;;-14.21;100.00
65280;BME280;51878;55.748;48.742;2022-12-07T01:33:56;101186.53;;;-14.23;100.00
65280;BME280;51878;55.748;48.742;2022-12-07T01:36:29;101202.19;;;-14.21;100.00
65280;BME280;51878;55.748;48.742;2022-12-07T01:38:59;101212.59;;;-14.18;100.00
65280;BME280;51878;55.748;48.742;2022-12-07T01:41:30;101215.22;;;-14.18;100.00
65280;BME280;51878;55.748;48.742;2022-12-07T01:46:47;101173.41;;;-14.33;100.00
65280;BME280;51878;55.748;48.742;2022-12-07T01:49:21;101210.91;;;-14.11;100.00
65280;BME280;51878;55.748;48.742;2022-12-07T01:51:52;101085.34;;;-14.91;100.00
65280;BME280;51878;55.748;48.742;2022-12-07T01:54:22;101167.28;;;-14.43;100.00
65280;BME280;51878;55.748;48.742;2022-12-07T01:56:52;101202.25;;;-14.09;100.00
65280;BME280;51878;55.748;48.742;2022-12-07T01:59:23;101211.81;;;-14.08;100.00
65280;BME280;51878;55.748;48.742;2022-12-07T02:01:53;101221.41;;;-14.05;100.00
65280;BME280;51878;55.748;48.742;2022-12-07T02:04:24;101223.13;;;-14.04;100.00
65280;BME280;51878;55.748;48.742;2022-12-07T02:06:51;101203.09;;;-14.13;100.00
65280;BME280;51878;55.748;48.742;2022-12-07T02:09:18;101179.59;;;-14.21;100.00
65280;BME280;51878;55.748;48.742;2022-12-07T02:11:46;101100.22;;;-14.75;100.00
65280;BME280;51878;55.748;48.742;2022-12-07T02:14:13;101215.34;;;-13.98;100.00
65280;BME280;51878;55.748;48.742;2022-12-07T02:16:55;101217.13;;;-13.91;100.00
65280;BME280;51878;55.748;48.742;2022-12-07T02:25:30;101155.22;;;-14.30;99.80
65280;BME280;51878;55.748;48.742;2022-12-07T02:30:55;101196.22;;;-14.06;99.37
65280;BME280;51878;55.748;48.742;2022-12-07T02:33:35;101207.50;;;-14.04;99.13
65280;BME280;51878;55.748;48.742;2022-12-07T02:36:07;101216.31;;;-13.87;99.41
65280;BME280;51878;55.748;48.742;2022-12-07T02:38:39;101080.25;;;-14.78;98.91
65280;BME280;51878;55.748;48.742;2022-12-07T02:43:46;101186.78;;;-13.86;98.58
65280;BME280;51878;55.748;48.742;2022-12-07T02:46:18;101151.91;;;-14.08;98.32
65280;BME280;51878;55.748;48.742;2022-12-07T02:48:49;101207.72;;;-13.69;98.06
65280;BME280;51878;55.748;48.742;2022-12-07T02:51:18;101216.41;;;-13.73;97.70
65280;BME280;51878;55.748;48.742;2022-12-07T02:53:45;101174.56;;;-13.95;97.73
65280;BME280;51878;55.748;48.742;2022-12-07T02:56:30;101213.00;;;-13.58;97.49
65280;BME280;51878;55.748;48.742;2022-12-07T03:10:32;101165.09;;;-13.83;96.58
65280;BME280;51878;55.748;48.742;2022-12-07T03:18:54;101143.31;;;-13.91;95.56
65280;BME280;51878;55.748;48.742;2022-12-07T03:21:25;101185.19;;;-13.64;95.38
65280;BME280;51878;55.748;48.742;2022-12-07T03:24:02;101212.97;;;-13.66;95.75
65280;BME280;51878;55.748;48.742;2022-12-07T03:26:34;101196.47;;;-13.66;95.69
65280;BME280;51878;55.748;48.742;2022-12-07T03:29:12;101124.06;;;-14.13;95.94
65280;BME280;51878;55.748;48.742;2022-12-07T03:31:43;101149.38;;;-13.94;95.65
65280;BME280;51878;55.748;48.742;2022-12-07T03:34:20;101214.69;;;-13.68;95.71
65280;BME280;51878;55.748;48.742;2022-12-07T03:37:16;101211.22;;;-13.73;95.88
65280;BME280;51878;55.748;48.742;2022-12-07T03:39:56;101151.94;;;-14.06;96.49
65280;BME280;51878;55.748;48.742;2022-12-07T03:42:24;101139.69;;;-14.18;96.11
65280;BME280;51878;55.748;48.742;2022-12-07T03:44:51;101163.97;;;-14.18;95.81
65280;BME280;51878;55.748;48.742;2022-12-07T03:47:46;101194.56;;;-13.92;96.87
65280;BME280;51878;55.748;48.742;2022-12-07T03:50:38;101165.84;;;-14.03;96.19
65280;BME280;51878;55.748;48.742;2022-12-07T03:53:24;101171.78;;;-14.21;96.44
65280;BME280;51878;55.748;48.742;2022-12-07T03:55:54;101199.75;;;-13.94;96.99
65280;BME280;51878;55.748;48.742;2022-12-07T03:58:23;101199.75;;;-13.94;97.01
65280;BME280;51878;55.748;48.742;2022-12-07T04:00:51;101162.31;;;-14.12;97.23
65280;BME280;51878;55.748;48.742;2022-12-07T04:03:18;101198.88;;;-13.97;96.98
65280;BME280;51878;55.748;48.742;2022-12-07T04:05:45;101204.97;;;-13.94;96.92
65280;BME280;51878;55.748;48.742;2022-12-07T04:08:12;101221.50;;;-13.87;97.28
65280;BME280;51878;55.748;48.742;2022-12-07T04:10:39;101191.81;;;-14.12;97.08
65280;BME280;51878;55.748;48.742;2022-12-07T04:13:06;101170.00;;;-14.25;97.35
65280;BME280;51878;55.748;48.742;2022-12-07T04:15:34;101067.22;;;-14.85;97.21
65280;BME280;51878;55.748;48.742;2022-12-07T04:18:01;101195.38;;;-13.98;97.50
65280;BME280;51878;55.748;48.742;2022-12-07T04:20:28;101229.41;;;-13.76;97.02
65280;BME280;51878;55.748;48.742;2022-12-07T04:22:55;101229.41;;;-13.76;96.80
65280;BME280;51878;55.748;48.742;2022-12-07T04:25:22;101167.47;;;-14.16;96.43
65280;BME280;51878;55.748;48.742;2022-12-07T04:27:49;101076.91;;;-14.63;96.89
65280;BME280;51878;55.748;48.742;2022-12-07T04:30:16;101205.88;;;-13.87;96.56
65280;BME280;51878;55.748;48.742;2022-12-07T04:32:43;101205.88;;;-13.87;96.91
65280;BME280;51878;55.748;48.742;2022-12-07T04:35:10;101203.31;;;-13.84;97.00
65280;BME280;51878;55.748;48.742;2022-12-07T04:37:37;101163.16;;;-14.15;96.73
65280;BME280;51878;55.748;48.742;2022-12-07T04:40:08;101213.72;;;-13.82;97.12
65280;BME280;51878;55.748;48.742;2022-12-07T04:42:38;101116.09;;;-14.41;96.57
65280;BME280;51878;55.748;48.742;2022-12-07T04:45:05;101183.22;;;-13.99;97.28
65280;BME280;51878;55.748;48.742;2022-12-07T04:47:33;101214.59;;;-13.80;96.94
65280;BME280;51878;55.748;48.742;2022-12-07T04:50:00;101044.75;;;-14.74;96.53
65280;BME280;51878;55.748;48.742;2022-12-07T04:52:29;101214.69;;;-13.73;96.38
65280;BME280;51878;55.748;48.742;2022-12-07T04:54:58;101164.09;;;-14.02;96.47
65280;BME280;51878;55.748;48.742;2022-12-07T04:57:25;101172.91;;;-13.83;96.12
65280;BME280;51878;55.748;48.742;2022-12-07T04:59:52;101173.75;;;-13.86;96.16
65280;BME280;51878;55.748;48.742;2022-12-07T05:02:18;101216.50;;;-13.55;95.42
65280;BME280;51878;55.748;48.742;2022-12-07T05:04:46;101187.78;;;-13.62;95.85
65280;BME280;51878;55.748;48.742;2022-12-07T05:07:13;101205.19;;;-13.60;95.99
65280;BME280;51878;55.748;48.742;2022-12-07T05:09:39;101198.25;;;-13.56;95.60
65280;BME280;51878;55.748;48.742;2022-12-07T05:12:10;101206.09;;;-13.47;95.44
65280;BME280;51878;55.748;48.742;2022-12-07T05:14:37;101176.47;;;-13.63;95.48
65280;BME280;51878;55.748;48.742;2022-12-07T05:17:04;101217.50;;;-13.36;94.90
65280;BME280;51878;55.748;48.742;2022-12-07T05:19:31;101219.25;;;-13.16;94.58
65280;BME280;51878;55.748;48.742;2022-12-07T05:21:58;101240.22;;;-12.99;94.90
65280;BME280;51878;55.748;48.742;2022-12-07T05:24:25;101244.72;;;-12.49;93.07
65280;BME280;51878;55.748;48.742;2022-12-07T05:26:52;101250.84;;;-12.22;90.90
65280;BME280;51878;55.748;48.742;2022-12-07T05:29:19;101239.47;;;-11.69;88.23
65280;BME280;51878;55.748;48.742;2022-12-07T05:31:46;101228.84;;;-11.14;85.17
65280;BME280;51878;55.748;48.742;2022-12-07T05:34:22;101240.94;;;-10.79;82.73
65280;BME280;51878;55.748;48.742;2022-12-07T05:36:52;101240.56;;;-10.22;79.38
65280;BME280;51878;55.748;48.742;2022-12-07T05:39:22;101227.78;;;-9.62;76.61
65280;BME280;51878;55.748;48.742;2022-12-07T05:41:49;101234.25;;;-9.10;75.13
65280;BME280;51878;55.748;48.742;2022-12-07T05:44:35;101230.88;;;-9.23;72.21
65280;BME280;51878;55.748;48.742;2022-12-07T05:47:02;101226.41;;;-8.46;71.14
65280;BME280;51878;55.748;48.742;2022-12-07T05:49:29;101224.84;;;-7.54;67.56
65280;BME280;51878;55.748;48.742;2022-12-07T05:51:57;101231.66;;;-7.94;65.34
65280;BME280;51878;55.748;48.742;2022-12-07T05:54:24;101246.94;;;-7.63;65.32
65280;BME280;51878;55.748;48.742;2022-12-07T05:56:54;101244.84;;;-6.97;63.05
65280;BME280;51878;55.748;48.742;2022-12-07T05:59:21;101197.34;;;-7.38;63.87
65280;BME280;51878;55.748;48.742;2022-12-07T06:01:54;101233.56;;;-7.04;62.88
65280;BME280;51878;55.748;48.742;2022-12-07T06:04:22;101248.78;;;-6.34;60.52
65280;BME280;51878;55.748;48.742;2022-12-07T06:06:50;101228.81;;;-5.73;58.96
65280;BME280;51878;55.748;48.742;2022-12-07T06:09:25;101257.97;;;-5.43;57.16
65280;BME280;51878;55.748;48.742;2022-12-07T06:11:54;101221.53;;;-4.99;54.79
65280;BME280;51878;55.748;48.742;2022-12-07T06:14:40;101248.19;;;-4.46;52.37
65280;BME280;51878;55.748;48.742;2022-12-07T06:17:10;101261.13;;;-5.29;55.42
65280;BME280;51878;55.748;48.742;2022-12-07T06:19:38;101163.75;;;-5.13;53.23
65280;BME280;51878;55.748;48.742;2022-12-07T06:22:06;101277.22;;;-5.05;54.72
65280;BME280;51878;55.748;48.742;2022-12-07T06:24:34;101241.72;;;-4.07;51.88
65280;BME280;51878;55.748;48.742;2022-12-07T06:27:01;101258.91;;;-4.21;51.30
65280;BME280;51878;55.748;48.742;2022-12-07T06:29:28;101131.44;;;-5.54;52.66
65280;BME280;51878;55.748;48.742;2022-12-07T06:31:56;101203.16;;;-4.16;50.86
65280;BME280;51878;55.748;48.742;2022-12-07T06:34:24;101275.41;;;-3.58;51.29
65280;BME280;51878;55.748;48.742;2022-12-07T06:36:52;101257.47;;;-3.76;51.11
65280;BME280;51878;55.748;48.742;2022-12-07T06:39:25;101250.56;;;-3.55;49.74
65280;BME280;51878;55.748;48.742;2022-12-07T06:41:52;101249.16;;;-3.39;48.10
65280;BME280;51878;55.748;48.742;2022-12-07T06:44:21;101232.03;;;-3.55;49.33
65280;BME280;51878;55.748;48.742;2022-12-07T06:46:50;101271.31;;;-3.15;48.99
65280;BME280;51878;55.748;48.742;2022-12-07T06:49:18;101222.72;;;-2.92;47.63
65280;BME280;51878;55.748;48.742;2022-12-07T06:51:45;101250.16;;;-4.82;50.63
65280;BME280;51878;55.748;48.742;2022-12-07T06:54:13;101186.56;;;-4.79;48.30
65280;BME280;51878;55.748;48.742;2022-12-07T06:56:41;101265.31;;;-2.02;45.51
65280;BME280;51878;55.748;48.742;2022-12-07T06:59:08;101249.75;;;-3.30;45.46
65280;BME280;51878;55.748;48.742;2022-12-07T07:01:35;101260.47;;;-1.92;45.63
65280;BME280;51878;55.748;48.742;2022-12-07T07:04:03;101216.72;;;-2.05;42.86
65280;BME280;51878;55.748;48.742;2022-12-07T07:06:31;101268.09;;;-2.51;46.38
65280;BME280;51878;55.748;48.742;2022-12-07T07:08:58;101215.47;;;-2.41;44.54
65280;BME280;51878;55.748;48.742;2022-12-07T07:11:25;101264.66;;;-2.54;45.67
65280;BME280;51878;55.748;48.742;2022-12-07T07:13:52;101263.22;;;-1.94;45.41
65280;BME280;51878;55.748;48.742;2022-12-07T07:16:20;101244.88;;;-2.45;43.74
65280;BME280;51878;55.748;48.742;2022-12-07T07:18:47;101266.31;;;-1.19;42.86
65280;BME280;51878;55.748;48.742;2022-12-07T07:21:14;101276.66;;;-3.68;47.53
65280;BME280;51878;55.748;48.742;2022-12-07T07:23:41;101264.25;;;-1.54;43.53
65280;BME280;51878;55.748;48.742;2022-12-07T07:26:08;101204.44;;;-2.30;43.70
65280;BME280;51878;55.748;48.742;2022-12-07T07:28:38;101265.13;;;-1.12;42.77
65280;BME280;51878;55.748;48.742;2022-12-07T07:31:05;101255.50;;;-0.75;41.68
65280;BME280;51878;55.748;48.742;2022-12-07T07:33:32;101243.56;;;-2.12;43.93
65280;BME280;51878;55.748;48.742;2022-12-07T07:35:59;101266.19;;;-0.96;40.89
65280;BME280;51878;55.748;48.742;2022-12-07T07:38:26;101264.16;;;-2.18;44.41
65280;BME280;51878;55.748;48.742;2022-12-07T07:40:53;101287.53;;;-1.38;43.86
65280;BME280;51878;55.748;48.742;2022-12-07T07:43:20;101191.00;;;-3.43;46.33
65280;BME280;51878;55.748;48.742;2022-12-07T07:45:47;101258.00;;;-0.91;42.71
65280;BME280;51878;55.748;48.742;2022-12-07T07:48:14;101273.91;;;-1.73;42.62
65280;BME280;51878;55.748;48.742;2022-12-07T07:50:41;101245.38;;;-2.83;46.67
65280;BME280;51878;55.748;48.742;2022-12-07T07:53:08;101268.25;;;-1.23;43.63
65280;BME280;51878;55.748;48.742;2022-12-07T07:55:35;101267.25;;;-1.00;42.45
65280;BME280;51878;55.748;48.742;2022-12-07T07:58:02;101200.47;;;-1.76;43.41
65280;BME280;51878;55.748;48.742;2022-12-07T08:00:29;101260.38;;;-0.85;42.63
65280;BME280;51878;55.748;48.742;2022-12-07T08:02:56;101271.38;;;-1.34;42.04
65280;BME280;51878;55.748;48.742;2022-12-07T08:05:23;101235.44;;;-1.23;42.88
65280;BME280;51878;55.748;48.742;2022-12-07T08:07:50;101262.19;;;-1.90;44.27
65280;BME280;51878;55.748;48.742;2022-12-07T08:10:17;101233.56;;;-1.83;43.57
65280;BME280;51878;55.748;48.742;2022-12-07T08:12:44;101218.63;;;-2.77;44.48
65280;BME280;51878;55.748;48.742;2022-12-07T08:15:38;101277.16;;;-3.83;48.01
65280;BME280;51878;55.748;48.742;2022-12-07T08:18:06;101246.84;;;-4.31;49.73
65280;BME280;51878;55.748;48.742;2022-12-07T08:20:36;101165.41;;;-4.23;49.22
65280;BME280;51878;55.748;48.742;2022-12-07T08:23:06;101201.47;;;-2.92;47.94
65280;BME280;51878;55.748;48.742;2022-12-07T08:25:34;101225.63;;;-2.06;44.69
65280;BME280;51878;55.748;48.742;2022-12-07T08:28:01;101186.38;;;-1.57;42.24
65280;BME280;51878;55.748;48.742;2022-12-07T08:30:29;101261.13;;;-0.81;42.02
65280;BME280;51878;55.748;48.742;2022-12-07T08:32:57;101260.78;;;-0.94;42.36
65280;BME280;51878;55.748;48.742;2022-12-07T08:35:24;101259.38;;;-1.44;42.58
65280;BME280;51878;55.748;48.742;2022-12-07T08:37:52;101204.63;;;-2.58;45.14
65280;BME280;51878;55.748;48.742;2022-12-07T08:40:19;101257.94;;;-1.31;42.10
65280;BME280;51878;55.748;48.742;2022-12-07T08:42:51;101208.53;;;-1.79;42.38
65280;BME280;51878;55.748;48.742;2022-12-07T08:45:18;101162.34;;;-2.63;44.25
65280;BME280;51878;55.748;48.742;2022-12-07T08:47:55;101234.09;;;-0.93;42.73
65280;BME280;51878;55.748;48.742;2022-12-07T08:50:24;101186.28;;;-1.15;41.51
65280;BME280;51878;55.748;48.742;2022-12-07T08:52:54;101204.78;;;-1.12;42.98
65280;BME280;51878;55.748;48.742;2022-12-07T08:55:21;101255.88;;;-1.87;43.47
65280;BME280;51878;55.748;48.742;2022-12-07T08:57:49;101194.16;;;-1.32;42.64
65280;BME280;51878;55.748;48.742;2022-12-07T09:00:16;101163.50;;;-2.46;43.40
65280;BME280;51878;55.748;48.742;2022-12-07T09:02:45;101234.19;;;-0.75;42.59
65280;BME280;51878;55.748;48.742;2022-12-07T09:05:34;101244.47;;;-1.69;44.81
65280;BME280;51878;55.748;48.742;2022-12-07T09:08:09;101237.44;;;-1.29;43.77
65280;BME280;51878;55.748;48.742;2022-12-07T09:10:37;101225.25;;;-0.93;43.12
65280;BME280;51878;55.748;48.742;2022-12-07T09:13:04;101201.75;;;-1.04;43.42
65280;BME280;51878;55.748;48.742;2022-12-07T09:15:31;101182.78;;;-3.12;44.47
65280;BME280;51878;55.748;48.742;2022-12-07T09:17:58;101201.03;;;-2.56;44.88
65280;BME280;51878;55.748;48.742;2022-12-07T09:20:25;101244.63;;;-3.88;47.66
65280;BME280;51878;55.748;48.742;2022-12-07T09:22:53;101232.31;;;-3.38;48.92
65280;BME280;51878;55.748;48.742;2022-12-07T09:25:20;101232.97;;;-2.59;47.34
65280;BME280;51878;55.748;48.742;2022-12-07T09:27:48;101241.47;;;-4.00;50.42
65280;BME280;51878;55.748;48.742;2022-12-07T09:30:15;101259.34;;;-3.80;49.93
65280;BME280;51878;55.748;48.742;2022-12-07T09:32:42;101249.84;;;-3.34;49.38
65280;BME280;51878;55.748;48.742;2022-12-07T09:35:09;101198.16;;;-4.25;49.81
65280;BME280;51878;55.748;48.742;2022-12-07T09:37:36;101144.78;;;-3.86;49.97
65280;BME280;51878;55.748;48.742;2022-12-07T09:40:04;101181.09;;;-2.44;47.00
65280;BME280;51878;55.748;48.742;2022-12-07T09:42:41;101207.31;;;-3.56;47.56
65280;BME280;51878;55.748;48.742;2022-12-07T09:45:24;101197.63;;;-1.93;45.79
65280;BME280;51878;55.748;48.742;2022-12-07T09:47:53;101235.00;;;-3.64;50.30
65280;BME280;51878;55.748;48.742;2022-12-07T09:50:24;101201.69;;;-3.21;48.94
65280;BME280;51878;55.748;48.742;2022-12-07T09:52:54;101229.91;;;-4.53;51.87
65280;BME280;51878;55.748;48.742;2022-12-07T09:55:26;101207.34;;;-4.37;51.90
65280;BME280;51878;55.748;48.742;2022-12-07T09:57:54;101252.50;;;-4.43;52.42
65280;BME280;51878;55.748;48.742;2022-12-07T10:00:23;101205.13;;;-2.94;48.37
65280;BME280;51878;55.748;48.742;2022-12-07T10:03:01;101249.72;;;-2.80;48.84
65280;BME280;51878;55.748;48.742;2022-12-07T10:05:38;101196.81;;;-2.85;48.57
65280;BME280;51878;55.748;48.742;2022-12-07T10:08:11;101075.59;;;-3.54;47.24
65280;BME280;51878;55.748;48.742;2022-12-07T10:10:39;101225.19;;;-2.63;47.39
65280;BME280;51878;55.748;48.742;2022-12-07T10:13:08;101226.41;;;-2.72;48.90
65280;BME280;51878;55.748;48.742;2022-12-07T10:15:56;101230.53;;;-4.75;52.23
65280;BME280;51878;55.748;48.742;2022-12-07T10:18:41;101248.50;;;-3.72;51.48
65280;BME280;51878;55.748;48.742;2022-12-07T10:23:41;101244.03;;;-4.25;53.63
65280;BME280;51878;55.748;48.742;2022-12-07T10:29:00;101195.56;;;-4.57;53.04
65280;BME280;51878;55.748;48.742;2022-12-07T10:31:28;101230.41;;;-5.02;54.70
65280;BME280;51878;55.748;48.742;2022-12-07T10:34:00;101230.28;;;-5.63;55.98
65280;BME280;51878;55.748;48.742;2022-12-07T10:36:35;101200.34;;;-6.30;58.81
65280;BME280;51878;55.748;48.742;2022-12-07T10:39:12;101246.69;;;-5.50;57.77
65280;BME280;51878;55.748;48.742;2022-12-07T10:42:19;101255.63;;;-6.26;60.20
65280;BME280;51878;55.748;48.742;2022-12-07T10:44:47;101252.88;;;-6.19;58.37
65280;BME280;51878;55.748;48.742;2022-12-07T10:49:51;101207.81;;;-5.45;56.77
65280;BME280;51878;55.748;48.742;2022-12-07T10:55:13;101205.06;;;-5.09;54.82
65280;BME280;51878;55.748;48.742;2022-12-07T11:15:27;101199.06;;;-6.15;59.47
65280;BME280;51878;55.748;48.742;2022-12-07T11:18:23;101210.06;;;-6.32;60.59
65280;BME280;51878;55.748;48.742;2022-12-07T11:24:01;101269.59;;;-7.51;65.38
65280;BME280;51878;55.748;48.742;2022-12-07T11:32:03;101276.22;;;-8.37;70.22
65280;BME280;51878;55.748;48.742;2022-12-07T11:37:13;101243.59;;;-8.27;69.67
65280;BME280;51878;55.748;48.742;2022-12-07T11:42:36;101166.88;;;-9.16;71.59
65280;BME280;51878;55.748;48.742;2022-12-07T11:45:16;101264.72;;;-8.97;72.98
65280;BME280;51878;55.748;48.742;2022-12-07T11:48:33;101203.25;;;-9.56;73.46
65280;BME280;51878;55.748;48.742;2022-12-07T11:50:42;101242.56;;;-9.54;75.85
65280;BME280;51878;55.748;48.742;2022-12-07T11:53:19;101277.34;;;-9.28;76.15
65280;BME280;51878;55.748;48.742;2022-12-07T11:58:38;101272.44;;;-9.68;77.73
65280;BME280;51878;55.748;48.742;2022-12-07T12:06:40;101237.34;;;-10.59;82.10
65280;BME280;51878;55.748;48.742;2022-12-07T12:09:35;101270.41;;;-10.42;82.13
65280;BME280;51878;55.748;48.742;2022-12-07T12:21:32;101155.03;;;-12.03;88.76
65280;BME280;51878;55.748;48.742;2022-12-07T12:24:14;101136.75;;;-12.36;89.95
65280;BME280;51878;55.748;48.742;2022-12-07T12:27:07;101271.72;;;-11.61;91.21
65280;BME280;51878;55.748;48.742;2022-12-07T12:29:39;101264.75;;;-11.71;91.59
65280;BME280;51878;55.748;48.742;2022-12-07T12:32:17;101240.38;;;-11.86;92.52
65280;BME280;51878;55.748;48.742;2022-12-07T12:42:48;101175.06;;;-12.61;94.89
65280;BME280;51878;55.748;48.742;2022-12-07T12:48:00;101106.22;;;-13.20;96.44
65280;BME280;51878;55.748;48.742;2022-12-07T12:50:36;101201.16;;;-12.55;96.78
65280;BME280;51878;55.748;48.742;2022-12-07T12:58:35;101229.91;;;-12.38;98.04
65280;BME280;51878;55.748;48.742;2022-12-07T13:01:41;101207.25;;;-12.60;97.69
65280;BME280;51878;55.748;48.742;2022-12-07T13:04:29;101259.53;;;-12.31;98.60
65280;BME280;51878;55.748;48.742;2022-12-07T13:06:57;101213.31;;;-12.77;98.85
65280;BME280;51878;55.748;48.742;2022-12-07T13:09:29;101153.19;;;-13.07;98.76
65280;BME280;51878;55.748;48.742;2022-12-07T13:14:56;101230.75;;;-12.62;99.20
65280;BME280;51878;55.748;48.742;2022-12-07T13:20:09;101200.22;;;-12.87;99.96
65280;BME280;51878;55.748;48.742;2022-12-07T13:22:44;101195.84;;;-12.95;99.78
65280;BME280;51878;55.748;48.742;2022-12-07T13:28:26;101255.09;;;-12.66;99.95
65280;BME280;51878;55.748;48.742;2022-12-07T13:31:11;101259.50;;;-12.60;99.91
65280;BME280;51878;55.748;48.742;2022-12-07T13:33:43;101255.09;;;-12.66;100.00
65280;BME280;51878;55.748;48.742;2022-12-07T13:36:43;101257.72;;;-12.71;99.71
65280;BME280;51878;55.748;48.742;2022-12-07T13:41:42;101208.00;;;-13.03;100.00
65280;BME280;51878;55.748;48.742;2022-12-07T13:44:12;101236.78;;;-12.84;100.00
65280;BME280;51878;55.748;48.742;2022-12-07T13:47:06;101190.63;;;-13.07;100.00
65280;BME280;51878;55.748;48.742;2022-12-07T13:49:45;101199.31;;;-13.02;100.00
65280;BME280;51878;55.748;48.742;2022-12-07T13:52:24;101120.03;;;-13.59;100.00
65280;BME280;51878;55.748;48.742;2022-12-07T13:57:35;101094.78;;;-13.73;100.00
65280;BME280;51878;55.748;48.742;2022-12-07T14:00:05;101246.38;;;-12.73;100.00
65280;BME280;51878;55.748;48.742;2022-12-07T14:05:32;101192.34;;;-13.11;100.00
65280;BME280;51878;55.748;48.742;2022-12-07T14:08:04;101228.94;;;-12.91;100.00
65280;BME280;51878;55.748;48.742;2022-12-07T14:10:34;101167.94;;;-13.26;100.00
65280;BME280;51878;55.748;48.742;2022-12-07T14:13:35;101209.75;;;-13.06;100.00
65280;BME280;51878;55.748;48.742;2022-12-07T14:16:05;101235.03;;;-12.88;100.00
65280;BME280;51878;55.748;48.742;2022-12-07T14:18:40;101173.16;;;-13.28;100.00
65280;BME280;51878;55.748;48.742;2022-12-07T14:23:38;101221.09;;;-12.94;100.00
65280;BME280;51878;55.748;48.742;2022-12-07T14:26:18;101251.56;;;-12.88;100.00
65280;BME280;51878;55.748;48.742;2022-12-07T14:28:47;101198.38;;;-13.16;100.00
65280;BME280;51878;55.748;48.742;2022-12-07T14:31:22;101250.69;;;-12.85;100.00
65280;BME280;51878;55.748;48.742;2022-12-07T14:33:59;101250.72;;;-12.87;100.00
65280;BME280;51878;55.748;48.742;2022-12-07T14:36:26;101141.78;;;-13.49;100.00
65280;BME280;51878;55.748;48.742;2022-12-07T14:38:53;101241.97;;;-12.87;100.00
65280;BME280;51878;55.748;48.742;2022-12-07T14:41:23;101169.69;;;-13.24;100.00
65280;BME280;51878;55.748;48.742;2022-12-07T14:44:12;101243.75;;;-12.86;99.77
65280;BME280;51878;55.748;48.742;2022-12-07T14:46:59;101248.09;;;-12.84;99.93
65280;BME280;51878;55.748;48.742;2022-12-07T14:49:46;101232.41;;;-12.98;100.00
65280;BME280;51878;55.748;48.742;2022-12-07T14:52:20;101227.16;;;-13.01;100.00
65280;BME280;51878;55.748;48.742;2022-12-07T14:55:26;101086.00;;;-13.91;100.00
65280;BME280;51878;55.748;48.742;2022-12-07T14:57:53;101234.16;;;-12.91;100.00
65280;BME280;51878;55.748;48.742;2022-12-07T15:00:22;101247.22;;;-12.86;100.00
65280;BME280;51878;55.748;48.742;2022-12-07T15:02:50;101208.00;;;-13.01;100.00